Stations météo

réclame
Mon MeteoGroup
Ploudalmezeau, France (7101): Température de l'air & dewpoint: 24.09.2020 19:00:00 - 30.09.2020 19:00:00 (CEST)Ploudalmezeau, France (7101): Vitesse du vent & gusts: 24.09.2020 19:00:00 - 30.09.2020 19:00:00 (CEST)Ploudalmezeau, France (7101): Direction du vent: 24.09.2020 19:00:00 - 30.09.2020 19:00:00 (CEST)Ploudalmezeau, France (7101): reduced air pressure: 24.09.2020 19:00:00 - 30.09.2020 19:00:00 (CEST)Ploudalmezeau, France (7101): Quantités de précipitations: 24.09.2020 19:00:00 - 30.09.2020 19:00:00 (CEST)
Date & Time tt [°C] td [°C] ff [km/h] ff [knt] fx [km/h] fx [knt] dd ppp [hPa] rr [mm]
30.09.2020 19:00:00 14,1 13,6 11 6 - - W 1004,7 0,2
30.09.2020 18:00:00 15,1 14,6 16 9 - - W 1004,8 2,0
30.09.2020 17:00:00 15,5 15,0 31 17 - - SW 1004,7 1,6
30.09.2020 16:00:00 15,3 14,8 31 17 - - SW 1005,3 3,4
30.09.2020 15:00:00 15,0 14,4 26 14 - - SW 1006,0 7,1
30.09.2020 14:00:00 14,8 13,8 23 13 - - SSW 1006,9 7,6
30.09.2020 13:00:00 15,8 12,9 28 15 - - SSW 1007,4 0,0
30.09.2020 12:00:00 15,9 12,8 27 15 - - SSW 1008,1 0,0
30.09.2020 11:00:00 15,6 12,7 21 12 - - SSW 1009,0 0,0
30.09.2020 10:00:00 15,1 14,0 22 12 - - SW 1009,8 0,0
30.09.2020 09:00:00 14,8 14,2 19 10 - - SW 1010,1 0,0
30.09.2020 08:00:00 14,7 14,2 19 10 - - SW 1011,0 0,0
30.09.2020 07:00:00 14,3 13,8 16 9 - - SW 1011,5 0,0
30.09.2020 06:00:00 14,3 13,8 16 9 - - SW 1011,9 0,0
30.09.2020 05:00:00 13,9 13,4 13 7 - - SW 1012,8 0,0
30.09.2020 04:00:00 13,9 13,3 11 6 - - SW 1013,7 0,0
30.09.2020 03:00:00 13,7 12,8 10 5 - - SSW 1014,5 0,0
30.09.2020 02:00:00 12,8 11,4 8 5 - - SSW 1015,4 0,0
30.09.2020 01:00:00 12,5 11,2 8 4 - - SSW 1016,0 0,0
30.09.2020 00:00:00 12,7 11,6 8 4 - - SSW 1016,6 0,0
29.09.2020 23:00:00 12,8 11,7 8 4 - - SSW 1017,1 0,0
29.09.2020 22:00:00 12,8 11,5 7 4 - - SW 1017,4 0,0
29.09.2020 21:00:00 12,5 10,7 7 4 - - SW 1017,7 0,0
29.09.2020 20:00:00 13,5 10,8 5 3 - - WSW 1017,7 0,0
29.09.2020 19:00:00 14,5 11,3 8 5 - - W 1017,7 0,0
29.09.2020 18:00:00 15,9 11,5 10 6 - - NW 1017,8 0,0
29.09.2020 17:00:00 16,2 11,4 11 6 - - NW 1018,0 0,0
29.09.2020 16:00:00 16,5 10,6 13 7 - - NW 1018,4 0,0
29.09.2020 15:00:00 16,8 11,1 10 5 - - NW 1018,7 0,0
29.09.2020 14:00:00 16,3 12,5 9 5 - - NW 1019,2 0,0
29.09.2020 13:00:00 16,1 11,9 7 4 - - NW 1019,4 0,0
29.09.2020 12:00:00 15,1 13,0 7 4 - - NNW 1019,5 0,0
29.09.2020 11:00:00 14,9 14,4 5 3 - - NNW 1019,3 0,0
29.09.2020 10:00:00 14,3 14,3 4 2 - - N 1018,8 0,0
29.09.2020 09:00:00 12,6 12,6 4 2 - - WNW 1018,8 0,0
29.09.2020 08:00:00 13,1 13,1 5 3 - - W 1018,5 0,0
29.09.2020 07:00:00 13,4 13,4 4 2 - - W 1018,1 0,0
29.09.2020 06:00:00 13,7 13,5 2 1 - - WNW 1017,8 0,0
29.09.2020 05:00:00 13,8 13,6 2 1 - - N 1017,9 0,0
29.09.2020 04:00:00 14,1 13,9 7 4 - - NW 1018,2 0,0
29.09.2020 03:00:00 14,2 14,0 6 4 - - W 1018,2 0,2
29.09.2020 02:00:00 14,3 14,1 7 4 - - WNW 1018,3 0,0
29.09.2020 01:00:00 14,4 14,2 6 4 - - W 1018,3 0,0
29.09.2020 00:00:00 14,6 14,4 10 6 - - WNW 1018,3 0,0
28.09.2020 23:00:00 15,3 15,0 15 8 - - W 1018,2 0,0
28.09.2020 22:00:00 15,6 15,3 16 8 - - WSW 1017,8 0,0
28.09.2020 21:00:00 15,6 15,1 14 7 - - WSW 1017,7 0,0
28.09.2020 20:00:00 15,8 15,0 14 8 24 13 WSW 1017,4 0,0
28.09.2020 19:00:00 16,4 15,3 15 8 - - WSW 1017,0 0,0
28.09.2020 18:00:00 17,3 16,2 16 9 - - W 1016,8 0,0
28.09.2020 17:00:00 17,3 16,2 19 10 - - W 1016,8 0,0
28.09.2020 16:00:00 16,9 16,1 15 8 - - W 1017,0 0,0
28.09.2020 15:00:00 17,3 16,8 17 9 - - W 1017,3 0,0
28.09.2020 14:00:00 16,1 15,5 13 7 - - W 1017,7 0,6
28.09.2020 13:00:00 16,0 15,2 15 8 - - WSW 1017,7 0,6
28.09.2020 12:00:00 16,2 15,6 13 7 - - WSW 1017,6 0,0
28.09.2020 11:00:00 15,8 15,5 15 8 - - W 1017,5 0,0
28.09.2020 10:00:00 14,8 14,5 13 7 - - W 1017,1 0,0
28.09.2020 09:00:00 14,0 13,7 9 5 - - WSW 1016,8 0,2
28.09.2020 08:00:00 13,6 13,1 13 7 - - WSW 1016,5 0,0
28.09.2020 07:00:00 12,8 12,2 9 5 - - WSW 1016,7 0,0
28.09.2020 06:00:00 12,2 11,4 5 3 - - WSW 1016,9 0,0
28.09.2020 05:00:00 12,0 11,2 6 3 - - WSW 1017,2 0,0
28.09.2020 04:00:00 11,3 10,7 4 2 - - W 1017,8 0,0
28.09.2020 03:00:00 9,4 8,6 3 2 - - SW 1018,1 0,0
28.09.2020 02:00:00 8,2 6,3 3 2 - - S 1018,7 0,0
28.09.2020 01:00:00 10,1 8,0 6 3 - - NW 1018,9 0,0
28.09.2020 00:00:00 10,5 8,1 9 5 - - NNW 1018,9 0,0
27.09.2020 23:00:00 11,5 8,4 11 6 - - NNW 1018,9 0,0
27.09.2020 22:00:00 11,6 8,3 14 8 - - NNW 1018,5 0,0
27.09.2020 21:00:00 11,3 8,0 16 8 - - NNW 1018,1 0,0
27.09.2020 20:00:00 11,8 7,7 16 9 32 18 NNW 1018,1 0,0
27.09.2020 19:00:00 12,8 7,7 21 11 - - NNW 1018,2 0,0
27.09.2020 18:00:00 13,3 7,9 21 11 - - NNW 1018,4 0,0
27.09.2020 17:00:00 14,1 7,6 22 12 - - NNW 1018,2 0,0
27.09.2020 16:00:00 14,2 7,5 22 12 - - N 1018,7 0,0
27.09.2020 15:00:00 13,7 6,8 21 11 - - N 1018,8 0,0
27.09.2020 14:00:00 15,0 8,0 21 11 - - N 1018,7 0,0
27.09.2020 13:00:00 13,7 7,7 17 9 - - N 1018,9 0,0
27.09.2020 12:00:00 13,1 7,7 18 10 - - N 1018,9 0,0
27.09.2020 11:00:00 13,0 7,0 20 11 - - N 1018,8 0,0
27.09.2020 10:00:00 12,8 7,5 18 10 - - N 1018,4 0,0
27.09.2020 09:00:00 12,2 6,9 18 10 - - N 1018,3 0,0
27.09.2020 08:00:00 11,8 7,1 16 9 - - N 1018,2 0,0
27.09.2020 07:00:00 11,3 6,4 16 9 - - N 1018,2 0,0
27.09.2020 06:00:00 11,7 6,8 18 10 - - N 1018,2 0,0
27.09.2020 05:00:00 11,2 6,7 13 7 - - N 1018,4 0,0
27.09.2020 04:00:00 11,2 6,5 14 8 - - N 1018,6 0,0
27.09.2020 03:00:00 11,4 6,7 14 7 - - N 1019,0 0,0
27.09.2020 02:00:00 11,5 6,2 13 7 - - N 1019,1 0,0
27.09.2020 01:00:00 11,5 6,0 14 8 - - NNE 1019,0 0,0
27.09.2020 00:00:00 11,6 6,3 13 7 - - N 1019,0 0,0
26.09.2020 23:00:00 11,8 6,5 17 9 - - N 1018,4 0,0
26.09.2020 22:00:00 11,8 5,9 19 11 - - NNE 1017,5 0,0
26.09.2020 21:00:00 11,8 5,6 23 12 - - NNE 1017,0 0,0
26.09.2020 20:00:00 12,1 6,2 20 11 - - NNE 1016,8 0,0
26.09.2020 19:00:00 13,2 6,3 23 12 - - NNE 1016,4 0,0
26.09.2020 18:00:00 13,9 6,7 21 12 - - NNE 1015,7 0,0
26.09.2020 17:00:00 14,0 6,1 22 12 - - NNE 1015,6 0,0
26.09.2020 16:00:00 14,0 6,4 22 12 - - NE 1015,5 0,0
26.09.2020 15:00:00 14,3 7,3 22 12 - - NE 1015,2 0,0
26.09.2020 14:00:00 13,8 10,4 20 11 - - NNE 1015,3 0,0
26.09.2020 13:00:00 12,6 9,6 14 8 - - NNE 1015,5 0,0
26.09.2020 12:00:00 11,7 9,8 10 6 - - NNE 1015,7 0,0
26.09.2020 11:00:00 10,9 10,3 7 4 - - NNE 1015,7 0,0
26.09.2020 10:00:00 10,2 9,6 7 4 - - N 1016,1 0,2
26.09.2020 09:00:00 9,8 9,2 7 4 - - NW 1016,2 0,0
26.09.2020 08:00:00 9,7 8,5 10 5 - - NW 1016,2 0,2
26.09.2020 07:00:00 10,6 7,8 18 10 - - WNW 1016,6 0,0
26.09.2020 06:00:00 11,5 7,0 18 10 - - NW 1016,9 0,0
26.09.2020 05:00:00 11,7 8,4 18 10 - - NW 1017,3 0,0
26.09.2020 04:00:00 11,3 8,3 18 10 - - NW 1017,9 0,0
26.09.2020 03:00:00 12,4 7,7 21 12 - - NW 1018,2 0,0
26.09.2020 02:00:00 12,3 8,0 23 12 - - NW 1018,8 0,0
26.09.2020 01:00:00 11,7 7,6 27 15 - - NW 1019,3 0,0
26.09.2020 00:00:00 12,2 7,3 22 12 - - NNW 1019,4 0,0
25.09.2020 23:00:00 12,1 7,6 22 12 - - NNW 1019,6 0,0
25.09.2020 22:00:00 12,2 7,7 27 14 - - NNW 1019,3 0,0
25.09.2020 21:00:00 12,4 7,5 27 15 - - NNW 1019,0 0,0
25.09.2020 20:00:00 12,4 8,5 26 14 - - NNW 1018,5 0,0
25.09.2020 19:00:00 13,1 8,6 26 14 - - NNW 1018,0 0,0
25.09.2020 18:00:00 13,8 9,2 25 14 - - NNW 1017,7 0,0
25.09.2020 17:00:00 13,7 8,7 27 15 - - NNW 1017,2 0,0
25.09.2020 16:00:00 14,6 8,3 26 14 - - NNW 1016,9 0,0
25.09.2020 15:00:00 14,6 7,9 29 16 - - NNW 1016,5 0,0
25.09.2020 14:00:00 14,8 8,1 27 14 - - NNW 1015,7 0,0
25.09.2020 13:00:00 13,5 7,7 28 15 - - NNW 1014,9 0,0
25.09.2020 12:00:00 13,5 8,3 28 15 - - NNW 1014,3 0,0
25.09.2020 11:00:00 13,4 7,4 30 16 - - N 1013,1 0,0
25.09.2020 10:00:00 12,8 7,2 31 17 - - NNW 1011,6 0,0
25.09.2020 09:00:00 12,3 6,1 34 19 - - NNW 1010,4 0,0
25.09.2020 08:00:00 11,9 6,8 29 15 - - NNW 1009,2 0,0
25.09.2020 07:00:00 11,9 6,0 34 18 - - NNW 1008,2 0,0
25.09.2020 06:00:00 12,1 7,0 33 18 - - NNW 1007,1 0,0
25.09.2020 05:00:00 12,3 7,8 35 19 - - NNW 1006,0 0,0
25.09.2020 04:00:00 11,6 7,7 29 16 - - NNW 1005,3 0,4
25.09.2020 03:00:00 11,3 7,6 35 19 - - NNW 1004,3 0,0
25.09.2020 02:00:00 12,2 7,5 40 21 - - NW 1003,4 0,2
25.09.2020 01:00:00 12,6 8,3 39 21 - - NW 1002,6 0,0
25.09.2020 00:00:00 12,5 8,2 40 21 - - NW 1001,6 0,0
24.09.2020 23:00:00 12,1 8,9 32 17 - - WNW 1000,6 0,2
24.09.2020 22:00:00 11,7 9,6 39 21 - - WNW 1000,0 0,8
24.09.2020 21:00:00 10,7 9,0 37 20 - - W 999,1 5,5
24.09.2020 20:00:00 9,8 6,7 48 26 111 60 W 998,7 1,6
24.09.2020 19:00:00 12,2 7,3 35 19 - - W 998,4 0,0

tt = Température de l'air
td = dewpoint
ff = Vitesse du vent
fx = gusts
dd = Direction du vent
ppp = reduced air pressure
rr = Quantités de précipitations

stations d'obs. à proximité